< < Back
Terminal Aerodrome Forecast


Current Version              Previous Versions:   1  2  3  4  5  6  7  8  9  

Terminal Aerodrome Forecast

219
FTAK31 PAJN 241100
TAFAGS
TAF
PAGS 241120Z 2412/2512 VRB04KT P6SM VCSH BKN030 OVC040
     FM250200 VRB04KT P6SM -SHRA SCT025 OVC050
      AMD NOT SKED=



Latest METAR

068
SAUS70 KWBC 241600
MTRAGS
METAR KAGS 241553Z 18006KT 10SM SCT007 BKN015 OVC080 21/19 A2985 RMK AO2
RAE1454B28E40 SLP106 P0000 T02060194


USA.gov is the U.S. government's official web portal to all federal, state and local government web resources and services.